createdAt,value
2019-04-10T00:01:55.101Z,6.47
2019-04-10T00:04:43.556Z,7.40
2019-04-10T00:07:31.330Z,7.67
2019-04-10T00:10:19.413Z,7.67
2019-04-10T00:13:08.737Z,7.00
2019-04-10T00:15:57.031Z,6.87
2019-04-10T00:18:46.415Z,7.10
2019-04-10T00:36:12.134Z,6.50
2019-04-10T00:44:52.405Z,7.35
2019-04-10T01:08:27.262Z,8.63
2019-04-10T01:11:15.390Z,8.65
2019-04-10T01:14:03.290Z,8.58
2019-04-10T01:19:46.881Z,8.63
2019-04-10T01:22:35.047Z,8.23
2019-04-10T01:28:16.363Z,9.23
2019-04-10T02:07:02.241Z,9.13
2019-04-10T02:15:38.729Z,9.03
2019-04-10T02:18:27.516Z,10.45
2019-04-10T02:21:15.985Z,10.15
2019-04-10T02:24:04.934Z,9.35
2019-04-10T02:26:54.027Z,10.15
2019-04-10T02:44:35.532Z,11.10
2019-04-10T02:55:58.030Z,9.98
2019-04-10T02:58:47.095Z,9.88
2019-04-10T03:01:35.711Z,9.78
2019-04-10T03:04:24.431Z,10.00
2019-04-10T03:07:13.134Z,10.10
2019-04-10T03:10:12.894Z,10.23
2019-04-10T03:15:57.973Z,9.78
2019-04-10T03:18:45.804Z,10.35
2019-04-10T03:21:33.623Z,10.65
2019-04-10T03:24:21.389Z,10.50
2019-04-10T03:27:10.136Z,9.95
2019-04-10T03:29:58.628Z,9.98
2019-04-10T03:33:09.405Z,11.05
2019-04-10T03:59:49.738Z,12.33
2019-04-10T04:14:40.887Z,13.58
2019-04-10T04:47:13.244Z,11.10
2019-04-10T04:55:53.396Z,11.80
2019-04-10T05:19:40.485Z,12.20
2019-04-10T05:22:28.426Z,11.20
2019-04-10T05:25:16.922Z,13.15
2019-04-10T05:28:05.848Z,11.75
2019-04-10T05:30:54.928Z,12.30
2019-04-10T05:33:42.933Z,12.70
2019-04-10T05:36:32.206Z,11.85
2019-04-10T05:39:13.117Z,11.65
2019-04-10T05:47:52.853Z,12.10
2019-04-10T05:50:23.592Z,11.68
2019-04-10T05:52:55.886Z,12.10
2019-04-10T05:55:26.659Z,11.65
2019-04-10T05:57:55.843Z,10.88
2019-04-10T06:00:27.023Z,10.95
2019-04-10T06:02:56.751Z,10.85
2019-04-10T06:05:26.457Z,11.83
2019-04-10T06:07:55.764Z,10.20
2019-04-10T06:10:24.996Z,10.58
2019-04-10T06:12:54.949Z,11.57
2019-04-10T06:15:24.153Z,11.43
2019-04-10T06:17:56.564Z,10.75
2019-04-10T06:20:27.636Z,8.73
2019-04-10T06:22:56.285Z,9.23
2019-04-10T06:25:25.341Z,9.90
2019-04-10T06:27:58.950Z,9.68
2019-04-10T06:30:28.341Z,10.28
2019-04-10T06:32:57.934Z,8.85
2019-04-10T06:35:28.219Z,9.70
2019-04-10T06:38:03.052Z,8.93
2019-04-10T06:40:36.057Z,10.50
2019-04-10T06:43:08.663Z,11.78
2019-04-10T06:45:39.948Z,10.38
2019-04-10T06:48:09.168Z,9.48
2019-04-10T06:50:39.237Z,10.15
2019-04-10T06:53:08.490Z,9.55
2019-04-10T06:55:40.511Z,9.68
2019-04-10T06:58:09.651Z,11.50
2019-04-10T07:00:41.040Z,10.05
2019-04-10T07:03:10.721Z,9.40
2019-04-10T07:05:47.989Z,9.50
2019-04-10T07:08:16.427Z,10.78
2019-04-10T07:10:52.087Z,10.43
2019-04-10T07:13:15.568Z,9.53
2019-04-10T07:15:45.838Z,8.23
2019-04-10T07:18:18.506Z,8.78
2019-04-10T07:20:47.472Z,8.03
2019-04-10T07:23:22.405Z,9.28
2019-04-10T07:25:48.534Z,9.10
2019-04-10T07:28:17.434Z,8.00
2019-04-10T07:30:46.382Z,8.00
2019-04-10T07:33:19.335Z,7.50
2019-04-10T07:35:46.666Z,7.20
2019-04-10T07:38:18.023Z,7.78
2019-04-10T07:40:47.681Z,7.40
2019-04-10T07:43:18.599Z,8.60
2019-04-10T07:45:47.754Z,7.58
2019-04-10T07:48:16.608Z,6.85
2019-04-10T07:50:47.049Z,7.83
2019-04-10T07:53:16.878Z,6.50
2019-04-10T07:55:56.578Z,6.87
2019-04-10T07:58:19.405Z,7.28
2019-04-10T08:00:49.755Z,8.13
2019-04-10T08:03:20.825Z,7.00
2019-04-10T08:05:50.198Z,7.22
2019-04-10T08:08:19.531Z,6.90
2019-04-10T08:10:48.854Z,7.35
2019-04-10T08:13:17.827Z,6.37
2019-04-10T08:15:46.642Z,7.00
2019-04-10T08:18:15.397Z,6.87
2019-04-10T08:20:44.140Z,8.20
2019-04-10T08:23:12.885Z,7.45
2019-04-10T08:25:41.700Z,7.55
2019-04-10T08:28:11.436Z,6.95
2019-04-10T08:30:40.382Z,6.83
2019-04-10T08:33:09.844Z,7.58
2019-04-10T08:35:39.789Z,7.40
2019-04-10T08:38:10.825Z,7.25
2019-04-10T08:40:40.440Z,7.35
2019-04-10T08:43:09.312Z,7.25
2019-04-10T08:45:46.378Z,7.08
2019-04-10T08:48:08.592Z,6.37
2019-04-10T08:50:38.433Z,7.00
2019-04-10T08:53:07.445Z,6.70
2019-04-10T08:55:36.238Z,7.20
2019-04-10T08:58:06.123Z,7.25
2019-04-10T09:00:36.411Z,6.58
2019-04-10T09:03:05.315Z,6.85
2019-04-10T09:05:35.395Z,6.62
2019-04-10T09:08:04.541Z,6.42
2019-04-10T09:10:34.437Z,6.87
2019-04-10T09:13:04.335Z,5.87
2019-04-10T09:15:34.038Z,6.40
2019-04-10T09:18:04.067Z,6.00
2019-04-10T09:20:33.092Z,6.20
2019-04-10T09:25:33.376Z,6.10
2019-04-10T09:28:02.361Z,6.10
2019-04-10T09:30:31.144Z,7.85
2019-04-10T09:33:00.714Z,7.92
2019-04-10T09:35:30.871Z,8.08
2019-04-10T09:37:59.809Z,8.50
2019-04-10T09:40:29.989Z,11.33
2019-04-10T09:42:59.767Z,10.35
2019-04-10T09:45:28.574Z,7.00
2019-04-10T09:47:57.941Z,8.50
2019-04-10T09:50:27.582Z,9.43
2019-04-10T09:52:56.596Z,8.57
2019-04-10T09:55:25.236Z,8.90
2019-04-10T09:57:53.982Z,8.70
2019-04-10T10:00:23.382Z,8.60
2019-04-10T10:02:55.038Z,8.90
2019-04-10T10:05:24.101Z,8.50
2019-04-10T10:07:55.569Z,8.43
2019-04-10T10:10:22.871Z,8.93
2019-04-10T10:12:52.379Z,9.10
2019-04-10T10:15:21.208Z,9.20
2019-04-10T10:17:49.830Z,8.50
2019-04-10T10:20:19.581Z,9.00
2019-04-10T10:22:49.432Z,8.90
2019-04-10T10:25:19.362Z,8.27
2019-04-10T10:27:48.887Z,9.87
2019-04-10T10:30:19.591Z,10.27
2019-04-10T10:32:48.936Z,9.33
2019-04-10T10:35:18.886Z,14.47
2019-04-10T10:37:48.386Z,8.57
2019-04-10T10:40:17.797Z,8.67
2019-04-10T10:42:47.688Z,9.00
2019-04-10T10:45:16.892Z,10.47
2019-04-10T10:47:46.355Z,8.53
2019-04-10T10:50:15.306Z,8.50
2019-04-10T10:52:43.903Z,9.43
2019-04-10T10:55:13.589Z,9.10
2019-04-10T10:57:42.229Z,8.23
2019-04-10T11:00:13.321Z,8.43
2019-04-10T11:02:41.808Z,8.00
2019-04-10T11:05:10.855Z,7.40
2019-04-10T11:07:40.434Z,7.57
2019-04-10T11:10:10.139Z,7.10
2019-04-10T11:12:38.915Z,7.77
2019-04-10T11:15:08.270Z,7.47
2019-04-10T11:17:38.437Z,7.63
2019-04-10T11:20:10.122Z,7.20
2019-04-10T11:22:39.794Z,8.13
2019-04-10T11:25:08.844Z,7.70
2019-04-10T11:27:39.186Z,6.80
2019-04-10T11:30:10.144Z,7.47
2019-04-10T11:32:38.752Z,9.37
2019-04-10T11:35:08.019Z,8.07
2019-04-10T11:40:08.744Z,9.10
2019-04-10T11:42:39.744Z,8.47
2019-04-10T11:45:10.589Z,8.50
2019-04-10T11:47:39.761Z,8.50
2019-04-10T11:50:28.533Z,8.13
2019-04-10T11:53:17.773Z,9.47
2019-04-10T11:56:05.828Z,9.93
2019-04-10T12:01:43.935Z,8.70
2019-04-10T12:04:43.540Z,9.50
2019-04-10T12:07:52.916Z,9.50
2019-04-10T12:13:01.912Z,11.03
2019-04-10T12:15:50.849Z,9.10
2019-04-10T12:18:38.436Z,7.60
2019-04-10T12:21:27.569Z,8.60
2019-04-10T12:24:16.160Z,8.40
2019-04-10T12:27:04.687Z,7.90
2019-04-10T12:29:53.106Z,8.60
2019-04-10T12:32:41.487Z,8.50
2019-04-10T12:35:29.772Z,8.30
2019-04-10T12:38:19.217Z,8.43
2019-04-10T12:41:07.444Z,7.83
2019-04-10T14:07:26.596Z,8.00
2019-04-10T14:55:04.387Z,6.50
2019-04-10T15:00:45.294Z,7.17
2019-04-10T15:03:26.510Z,7.45
2019-04-10T15:36:11.501Z,5.85
2019-04-10T16:08:56.754Z,5.03
2019-04-10T16:32:31.384Z,5.85
2019-04-10T16:41:12.173Z,5.15
2019-04-10T16:47:06.135Z,5.80
2019-04-10T16:58:59.058Z,5.72
2019-04-10T17:04:39.656Z,6.05
2019-04-10T17:16:17.731Z,5.53
2019-04-10T17:27:54.540Z,5.50
2019-04-10T17:36:47.370Z,5.53
2019-04-10T17:48:40.320Z,6.60
2019-04-10T17:51:50.235Z,6.10
2019-04-10T17:54:38.693Z,5.87
2019-04-10T18:00:57.631Z,6.00
2019-04-10T18:03:51.682Z,5.40
2019-04-10T18:06:49.961Z,5.25
2019-04-10T18:12:20.191Z,5.85
2019-04-10T18:15:08.461Z,6.72
2019-04-10T18:17:57.478Z,6.37
2019-04-10T18:20:46.421Z,6.05
2019-04-10T18:23:35.597Z,6.47
2019-04-10T18:26:25.717Z,5.30
2019-04-10T18:29:14.882Z,5.40
2019-04-10T18:32:04.131Z,5.65
2019-04-10T18:34:54.138Z,5.33
2019-04-10T18:37:44.567Z,5.40
2019-04-10T18:43:42.496Z,5.92
2019-04-10T19:07:13.281Z,8.18
2019-04-10T19:31:12.839Z,6.10
2019-04-10T19:36:45.985Z,6.12
2019-04-10T19:39:26.622Z,5.70
2019-04-10T19:45:19.850Z,7.70
2019-04-10T20:02:55.284Z,5.00
2019-04-10T20:08:35.505Z,5.75
2019-04-10T20:11:16.991Z,5.83
2019-04-10T20:34:50.307Z,4.55
2019-04-10T20:49:40.571Z,5.30
2019-04-10T22:16:09.455Z,5.10
2019-04-10T22:18:50.557Z,4.67
2019-04-10T22:21:31.441Z,6.25
2019-04-10T22:33:11.758Z,4.67
2019-04-10T22:54:01.791Z,4.95
2019-04-10T23:14:36.637Z,5.17
2019-04-10T23:26:29.038Z,4.80
2019-04-10T23:29:09.841Z,4.87
2019-04-10T23:49:57.528Z,4.58
